Meteo Giornale » Osservazioni meteo Svezia » Stockholm-Arlanda

ore: 08:50 - Osservazioni Meteo Stockholm-Arlanda
Lat. 59° 39' N Lon. 17° 57' E Alt. 38 metri s.l.m.

sereno Europe/Stockholm

1 °C

Sereno

Temp. 24 Ore

-6 °C

8 °C

Ovest/Sud-Ovest

7.4 Km/h

Dew point -6 °C

Umidità 59 %

Visibilità  10 Km

Il sole sorge alle ore 05:33

Il sole tramonta alle ore 18:15

Data e Ora Cielo e Fenomeni T °C DP °C Um. % Pres. hPa Vis. km Vento km/h
Oggi h: 08:50 sereno Sereno 1 -6 59 1025 10 O/SO 7.4
Oggi h: 08:20 sereno Sereno 0 -7 59 1025 10 O 11.1
Oggi h: 07:50 sereno Sereno -1 -7 63 1025 10 O/NO 9.3
Oggi h: 07:20 sereno Sereno -3 -7 73 1025 10 O 11.1
Oggi h: 06:50 sereno Sereno -5 -7 85 1025 10 O/SO 7.4
Oggi h: 06:20 sereno Sereno -5 -8 79 1025 10 N 5.5
Oggi h: 05:50 sereno Sereno -6 -8 85 1024 10 O 7.4
Oggi h: 05:20 sereno Sereno -5 -9 73 1024 10 O 7.4
Oggi h: 04:50 sereno Sereno -5 -8 79 1024 10 O 9.3
Oggi h: 04:20 sereno Sereno -5 -8 79 1024 10 O 7.4
Oggi h: 03:50 sereno Sereno -5 -8 79 1024 10 N 5.5
Oggi h: 03:20 sereno Sereno -4 -8 73 1024 10 O 7.4
Oggi h: 02:50 sereno Sereno -5 -7 85 1024 10 O/SO 7.4
Oggi h: 02:20 sereno Sereno -4 -8 73 1024 10 O/NO 7.4
Oggi h: 01:50 sereno Sereno -4 -8 73 1023 10 N 5.5
Oggi h: 01:20 sereno Sereno -3 -8 68 1023 10 O/NO 7.4
Oggi h: 00:50 sereno Sereno -3 -7 73 1023 10 O/NO 7.4
Oggi h: 00:20 sereno Sereno -1 -8 58 1023 10 O/NO 7.4
Ieri h: 23:50 sereno Sereno -1 -8 58 1023 10 O/NO 7.4
Ieri h: 23:20 sereno Sereno -2 -8 63 1023 10 O/NO 9.3
Ieri h: 22:50 sereno Sereno -2 -8 63 1022 10 O/NO 9.3
Ieri h: 22:20 sereno Sereno -2 -8 63 1022 10 O 9.3
Ieri h: 21:50 sereno Sereno 1 -9 47 1022 10 O/NO 9.3
Ieri h: 21:20 sereno Sereno 2 -9 43 1022 10 NO 9.3
Ieri h: 20:50 sereno Sereno 2 -9 43 1022 10 NO 13
Ieri h: 20:20 sereno Sereno 3 -9 40 1021 10 O/NO 13
Ieri h: 19:50 sereno Sereno 4 -9 38 1021 10 NO 11.1
Ieri h: 19:20 sereno Sereno 4 -9 38 1021 10 O/NO 11.1
Ieri h: 18:50 sereno Sereno 5 -8 38 1020 10 O 14.8
Ieri h: 18:20 sereno Sereno 5 -6 44 1020 10 O 14.8
Ieri h: 17:50 sereno Sereno 6 -7 38 1019 10 O/SO 16.7
Ieri h: 17:20 sereno Sereno 7 -8 33 1019 10 O/SO 16.7
Ieri h: 16:50 sereno Sereno 7 -8 33 1019 10 O 18.5
Ieri h: 16:20 sereno Sereno 8 -7 33 1019 10 O 22.2
Ieri h: 15:50 sereno Sereno 8 -8 31 1019 10 O 22.2
Ieri h: 15:20 sereno Sereno 8 -5 39 1019 10 O 22.2
Ieri h: 14:50 sereno Sereno 7 -4 45 1019 10 O 24
Ieri h: 14:20 sereno Sereno 7 -3 48 1019 10 O 27.8
Ieri h: 13:50 sereno Sereno 6 -5 45 1019 10 O 24
Ieri h: 13:20 poco_nuvoloso Poco Nuvoloso 6 -3 52 1019 10 O 24
Ieri h: 12:50 sereno Sereno 6 -2 56 1019 10 O 20.3
Ieri h: 12:20 sereno Sereno 6 -2 56 1019 10 O 22.2
Ieri h: 11:50 sereno Sereno 6 -2 56 1019 10 O/SO 20.3
Ieri h: 11:20 sereno Sereno 5 -3 56 1019 10 O/SO 16.7
Ieri h: 10:50 sereno Sereno 4 -4 55 1019 10 SO 16.7
Ieri h: 10:20 sereno Sereno 4 -2 64 1019 10 S/SO 13
Ieri h: 09:50 sereno Sereno 4 -2 64 1019 10 SO 9.3
Ieri h: 09:20 sereno Sereno 3 -2 69 1019 10 O 9.3
Ieri h: 08:50 sereno Sereno 2 -1 80 1019 10 O/SO 11.1